createdAt,value
2022-12-17T00:15:23.207Z,-2.79
2022-12-17T00:20:22.702Z,-3.40
2022-12-17T00:25:22.703Z,-3.42
2022-12-17T00:30:24.586Z,-3.47
2022-12-17T00:35:22.631Z,-3.48
2022-12-17T00:40:22.956Z,-3.47
2022-12-17T00:45:22.837Z,-3.48
2022-12-17T00:50:22.622Z,-3.51
2022-12-17T00:55:22.864Z,-3.51
2022-12-17T01:00:23.247Z,-3.44
2022-12-17T01:05:22.902Z,-3.48
2022-12-17T01:10:22.729Z,-3.48
2022-12-17T01:15:22.619Z,-3.44
2022-12-17T01:20:22.860Z,-3.47
2022-12-17T01:25:22.785Z,-3.51
2022-12-17T01:30:22.697Z,-3.53
2022-12-17T01:35:22.667Z,-3.56
2022-12-17T01:40:24.470Z,-3.54
2022-12-17T01:45:23.445Z,-3.60
2022-12-17T01:50:23.829Z,-3.69
2022-12-17T01:55:22.756Z,-3.71
2022-12-17T02:00:24.949Z,-3.69
2022-12-17T02:05:22.632Z,-3.65
2022-12-17T02:10:31.726Z,-3.71
2022-12-17T02:15:30.227Z,-3.76
2022-12-17T02:20:30.836Z,-3.68
2022-12-17T02:25:31.273Z,-3.78
2022-12-17T02:30:22.582Z,-3.80
2022-12-17T02:40:22.908Z,-3.76
2022-12-17T02:45:23.743Z,-3.83
2022-12-17T02:50:23.198Z,-3.82
2022-12-17T02:55:22.681Z,-3.68
2022-12-17T03:00:23.150Z,-3.61
2022-12-17T03:05:43.825Z,-3.59
2022-12-17T03:10:22.583Z,-3.60
2022-12-17T03:15:22.588Z,-3.53
2022-12-17T03:20:22.538Z,-3.52
2022-12-17T03:25:23.380Z,-3.52
2022-12-17T03:30:22.550Z,-3.54
2022-12-17T03:35:22.497Z,-3.56
2022-12-17T03:40:22.814Z,-3.53
2022-12-17T03:45:22.522Z,-3.51
2022-12-17T03:50:22.585Z,-3.51
2022-12-17T03:55:22.752Z,-3.52
2022-12-17T04:00:22.894Z,-3.59
2022-12-17T04:05:22.422Z,-3.67
2022-12-17T04:10:23.006Z,-3.67
2022-12-17T04:15:22.576Z,-3.76
2022-12-17T04:20:22.460Z,-3.77
2022-12-17T04:25:22.771Z,-3.90
2022-12-17T04:30:22.405Z,-3.93
2022-12-17T04:35:22.474Z,-3.92
2022-12-17T04:40:23.035Z,-3.99
2022-12-17T04:45:22.564Z,-3.97
2022-12-17T04:50:22.542Z,-3.97
2022-12-17T04:55:22.911Z,-3.91
2022-12-17T05:00:23.124Z,-3.92
2022-12-17T05:05:22.369Z,-3.97
2022-12-17T05:10:22.591Z,-3.87
2022-12-17T05:15:22.367Z,-3.95
2022-12-17T05:20:22.656Z,-3.91
2022-12-17T05:25:23.523Z,-3.86
2022-12-17T05:30:22.377Z,-3.84
2022-12-17T05:35:22.423Z,-3.94
2022-12-17T05:40:22.711Z,-3.94
2022-12-17T05:45:22.449Z,-3.91
2022-12-17T05:50:22.373Z,-3.79
2022-12-17T05:55:22.642Z,-4.00
2022-12-17T06:00:23.871Z,-3.94
2022-12-17T06:05:22.307Z,-4.05
2022-12-17T06:10:22.582Z,-4.04
2022-12-17T06:15:22.374Z,-4.05
2022-12-17T06:20:22.434Z,-4.15
2022-12-17T06:25:22.567Z,-4.21
2022-12-17T06:30:22.378Z,-4.21
2022-12-17T06:35:22.428Z,-4.24
2022-12-17T06:40:22.545Z,-4.27
2022-12-17T06:45:22.358Z,-4.13
2022-12-17T06:50:22.315Z,-4.24
2022-12-17T06:55:22.617Z,-4.21
2022-12-17T07:00:22.731Z,-4.12
2022-12-17T07:05:22.414Z,-4.20
2022-12-17T07:10:22.478Z,-4.28
2022-12-17T07:15:22.432Z,-4.24
2022-12-17T07:20:22.324Z,-4.23
2022-12-17T07:25:22.461Z,-4.25
2022-12-17T07:30:22.404Z,-4.17
2022-12-17T07:35:22.443Z,-4.14
2022-12-17T07:40:22.534Z,-4.02
2022-12-17T07:45:22.301Z,-4.12
2022-12-17T07:50:22.362Z,-4.11
2022-12-17T07:55:22.495Z,-4.14
2022-12-17T08:00:22.771Z,-4.14
2022-12-17T08:05:22.449Z,-4.01
2022-12-17T08:10:22.482Z,-4.15
2022-12-17T08:15:22.560Z,-3.98
2022-12-17T08:20:22.167Z,-4.01
2022-12-17T08:25:22.502Z,-4.07
2022-12-17T08:30:22.475Z,-4.01
2022-12-17T08:35:22.273Z,-4.15
2022-12-17T08:40:22.665Z,-4.23
2022-12-17T08:45:22.191Z,-4.27
2022-12-17T08:50:22.199Z,-4.25
2022-12-17T08:55:22.416Z,-4.29
2022-12-17T09:00:22.745Z,-4.25
2022-12-17T09:05:22.448Z,-4.32
2022-12-17T09:10:22.368Z,-4.05
2022-12-17T09:15:22.256Z,-4.10
2022-12-17T09:20:27.670Z,-4.20
2022-12-17T09:25:22.343Z,-4.29
2022-12-17T09:30:24.532Z,-4.35
2022-12-17T09:35:22.200Z,-4.40
2022-12-17T09:40:27.641Z,-4.26
2022-12-17T09:45:26.140Z,-4.00
2022-12-17T09:50:25.141Z,-4.15
2022-12-17T09:55:26.189Z,-4.27
2022-12-17T10:00:24.503Z,-4.26
2022-12-17T10:05:26.597Z,-4.23
2022-12-17T10:10:26.279Z,-4.10
2022-12-17T10:15:23.900Z,-4.24
2022-12-17T10:20:29.888Z,-4.25
2022-12-17T10:25:25.945Z,-4.15
2022-12-17T10:30:24.033Z,-4.07
2022-12-17T10:35:30.076Z,-3.70
2022-12-17T10:40:31.933Z,-3.78
2022-12-17T10:45:32.582Z,-3.70
2022-12-17T10:50:24.187Z,-3.51
2022-12-17T10:55:31.212Z,-3.51
2022-12-17T11:00:33.442Z,-3.74
2022-12-17T11:05:34.190Z,-3.84
2022-12-17T11:10:25.223Z,-3.86
2022-12-17T11:15:28.342Z,-3.94
2022-12-17T11:20:31.605Z,-3.86
2022-12-17T11:25:33.840Z,-4.01
2022-12-17T11:30:27.709Z,-3.94
2022-12-17T11:35:28.552Z,-3.92
2022-12-17T11:40:31.063Z,-4.12
2022-12-17T11:45:33.806Z,-4.42
2022-12-17T11:50:29.821Z,-4.40
2022-12-17T11:55:32.089Z,-4.22
2022-12-17T12:00:26.029Z,-4.21
2022-12-17T12:05:31.075Z,-4.28
2022-12-17T12:10:28.526Z,-4.24
2022-12-17T12:15:33.608Z,-4.26
2022-12-17T12:20:39.936Z,-4.29
2022-12-17T12:25:34.311Z,-4.15
2022-12-17T12:30:25.337Z,-4.14
2022-12-17T12:35:27.727Z,-4.16
2022-12-17T12:40:30.963Z,-4.11
2022-12-17T12:45:38.435Z,-4.07
2022-12-17T12:50:29.835Z,-3.88
2022-12-17T12:55:22.319Z,-3.79
2022-12-17T13:00:33.660Z,-3.73
2022-12-17T13:05:33.844Z,-3.68
2022-12-17T13:10:25.529Z,-3.80
2022-12-17T13:15:20.380Z,-3.83
2022-12-17T13:20:24.028Z,-3.95
2022-12-17T13:25:17.355Z,-3.81
2022-12-17T13:30:20.651Z,-3.91
2022-12-17T13:35:23.959Z,-4.06
2022-12-17T13:40:21.880Z,-3.86
2022-12-17T13:45:14.773Z,-3.91
2022-12-17T13:50:35.940Z,-3.85
2022-12-17T13:55:20.144Z,-4.11
2022-12-17T14:00:20.424Z,-4.20
2022-12-17T14:05:22.151Z,-4.35
2022-12-17T14:10:15.456Z,-4.47
2022-12-17T14:15:21.506Z,-4.58
2022-12-17T14:20:14.965Z,-4.73
2022-12-17T14:25:15.884Z,-4.80
2022-12-17T14:30:22.465Z,-4.82
2022-12-17T14:35:22.603Z,-4.70
2022-12-17T14:40:14.293Z,-4.69
2022-12-17T14:45:23.021Z,-4.60
2022-12-17T14:50:25.068Z,-4.60
2022-12-17T14:55:30.740Z,-4.71
2022-12-17T15:00:12.696Z,-4.55
2022-12-17T15:05:14.693Z,-4.59
2022-12-17T15:10:15.532Z,-4.70
2022-12-17T15:15:13.630Z,-4.74
2022-12-17T15:20:16.228Z,-4.63
2022-12-17T15:25:12.814Z,-4.63
2022-12-17T15:30:13.582Z,-4.51
2022-12-17T15:35:13.102Z,-4.42
2022-12-17T15:40:12.170Z,-4.58
2022-12-17T15:45:12.161Z,-4.70
2022-12-17T15:50:11.800Z,-4.61
2022-12-17T15:55:11.971Z,-4.53
2022-12-17T16:00:12.494Z,-4.82
2022-12-17T16:05:11.890Z,-4.94
2022-12-17T16:10:13.690Z,-4.83
2022-12-17T16:15:13.041Z,-4.89
2022-12-17T16:20:11.935Z,-4.90
2022-12-17T16:25:11.928Z,-4.94
2022-12-17T16:30:13.542Z,-4.92
2022-12-17T16:35:13.015Z,-5.04
2022-12-17T16:40:11.919Z,-5.27
2022-12-17T16:45:12.060Z,-5.23
2022-12-17T16:50:11.874Z,-5.13
2022-12-17T16:55:11.919Z,-5.26
2022-12-17T17:00:12.635Z,-5.17
2022-12-17T17:05:12.063Z,-5.19
2022-12-17T17:10:11.765Z,-5.28
2022-12-17T17:15:12.195Z,-5.50
2022-12-17T17:20:11.964Z,-5.55
2022-12-17T17:25:12.051Z,-5.56
2022-12-17T17:30:13.109Z,-5.48
2022-12-17T17:35:11.781Z,-5.50
2022-12-17T17:40:12.417Z,-5.49
2022-12-17T17:45:11.968Z,-5.52
2022-12-17T17:50:11.917Z,-5.46
2022-12-17T17:55:12.196Z,-5.38
2022-12-17T18:00:12.780Z,-5.24
2022-12-17T18:05:11.686Z,-5.26
2022-12-17T18:10:11.929Z,-5.15
2022-12-17T18:15:15.190Z,-5.12
2022-12-17T18:20:12.422Z,-5.09
2022-12-17T18:25:11.876Z,-5.14
2022-12-17T18:30:12.987Z,-5.19
2022-12-17T18:35:11.702Z,-5.19
2022-12-17T18:40:11.771Z,-5.17
2022-12-17T18:45:12.042Z,-5.29
2022-12-17T18:50:12.331Z,-5.48
2022-12-17T18:55:11.708Z,-5.46
2022-12-17T19:00:13.929Z,-5.54
2022-12-17T19:05:11.718Z,-5.55
2022-12-17T19:10:11.770Z,-5.35
2022-12-17T19:15:11.829Z,-5.43
2022-12-17T19:20:11.700Z,-5.47
2022-12-17T19:25:11.827Z,-5.36
2022-12-17T19:30:12.150Z,-5.33
2022-12-17T19:35:11.852Z,-5.42
2022-12-17T19:40:12.300Z,-5.42
2022-12-17T19:45:11.874Z,-5.22
2022-12-17T19:50:11.959Z,-5.28
2022-12-17T19:55:11.754Z,-5.25
2022-12-17T20:00:12.367Z,-5.30
2022-12-17T20:05:11.755Z,-5.03
2022-12-17T20:10:11.803Z,-5.01
2022-12-17T20:15:11.946Z,-4.93
2022-12-17T20:20:11.551Z,-5.02
2022-12-17T20:25:11.996Z,-5.03
2022-12-17T20:30:12.199Z,-4.84
2022-12-17T20:35:11.680Z,-4.85
2022-12-17T20:40:11.972Z,-4.83
2022-12-17T20:45:11.892Z,-4.99
2022-12-17T20:50:11.595Z,-5.01
2022-12-17T20:55:11.618Z,-4.96
2022-12-17T21:00:12.121Z,-4.87
2022-12-17T21:05:11.588Z,-4.88
2022-12-17T21:10:12.171Z,-4.77
2022-12-17T21:15:11.770Z,-4.68
2022-12-17T21:20:11.724Z,-4.61
2022-12-17T21:25:11.731Z,-4.62
2022-12-17T21:30:13.461Z,-4.65
2022-12-17T21:35:11.589Z,-4.68
2022-12-17T21:40:12.067Z,-4.54
2022-12-17T21:45:11.599Z,-4.46
2022-12-17T21:50:11.560Z,-4.47
2022-12-17T21:55:11.753Z,-4.39
2022-12-17T22:00:12.703Z,-4.41
2022-12-17T22:05:16.270Z,-4.34
2022-12-17T22:10:35.038Z,-4.34
2022-12-17T22:15:12.114Z,-4.45
2022-12-17T22:20:11.800Z,-4.60
2022-12-17T22:25:11.910Z,-4.57
2022-12-17T22:30:24.416Z,-4.46
2022-12-17T22:37:35.245Z,-4.54
2022-12-17T22:44:34.343Z,-4.54
2022-12-17T22:45:12.840Z,-4.51
2022-12-17T22:50:11.646Z,-4.51
2022-12-17T22:55:11.515Z,-4.57
2022-12-17T23:00:19.865Z,-4.71
2022-12-17T23:05:11.436Z,-4.61
2022-12-17T23:10:11.625Z,-4.55
2022-12-17T23:15:11.871Z,-4.50
2022-12-17T23:20:12.575Z,-4.48
2022-12-17T23:25:12.211Z,-4.54
2022-12-17T23:30:13.724Z,-4.46
2022-12-17T23:35:12.658Z,-4.47
2022-12-17T23:40:12.145Z,-4.34
2022-12-17T23:45:12.171Z,-4.25
2022-12-17T23:50:11.472Z,-4.25
2022-12-17T23:55:11.644Z,-4.20
